sensor_id;sensor_type;location;lat;lon;timestamp;pressure;altitude;pressure_sealevel;temperature;humidity
17711;BME280;8975;57.718;12.134;2022-08-23T00:02:09;115940.22;;;-142.68;60.72
17711;BME280;8975;57.718;12.134;2022-08-23T00:04:41;115940.22;;;-142.68;60.39
17711;BME280;8975;57.718;12.134;2022-08-23T00:07:10;115940.22;;;-142.68;60.46
17711;BME280;8975;57.718;12.134;2022-08-23T00:09:36;115940.22;;;-142.68;60.35
17711;BME280;8975;57.718;12.134;2022-08-23T00:12:18;115940.22;;;-142.68;60.28
17711;BME280;8975;57.718;12.134;2022-08-23T00:14:48;115940.22;;;-142.68;60.28
17711;BME280;8975;57.718;12.134;2022-08-23T00:17:15;115940.22;;;-142.68;60.69
17711;BME280;8975;57.718;12.134;2022-08-23T00:19:41;115940.22;;;-142.68;60.54
17711;BME280;8975;57.718;12.134;2022-08-23T00:22:07;115940.22;;;-142.68;60.51
17711;BME280;8975;57.718;12.134;2022-08-23T00:24:33;115940.22;;;-142.68;60.28
17711;BME280;8975;57.718;12.134;2022-08-23T00:29:40;115940.22;;;-142.68;60.79
17711;BME280;8975;57.718;12.134;2022-08-23T00:32:08;115940.22;;;-142.68;60.73
17711;BME280;8975;57.718;12.134;2022-08-23T00:34:35;115940.22;;;-142.68;61.06
17711;BME280;8975;57.718;12.134;2022-08-23T00:37:02;115940.22;;;-142.68;60.63
17711;BME280;8975;57.718;12.134;2022-08-23T00:39:27;115940.22;;;-142.68;60.49
17711;BME280;8975;57.718;12.134;2022-08-23T00:41:57;115940.22;;;-142.68;60.30
17711;BME280;8975;57.718;12.134;2022-08-23T00:44:27;115940.22;;;-142.68;60.30
17711;BME280;8975;57.718;12.134;2022-08-23T00:47:13;115940.22;;;-142.68;60.07
17711;BME280;8975;57.718;12.134;2022-08-23T00:55:28;115940.22;;;-142.68;60.74
17711;BME280;8975;57.718;12.134;2022-08-23T00:57:53;115940.22;;;-142.68;60.43
17711;BME280;8975;57.718;12.134;2022-08-23T01:00:19;115940.22;;;-142.68;60.16
17711;BME280;8975;57.718;12.134;2022-08-23T01:02:47;115940.22;;;-142.68;60.01
17711;BME280;8975;57.718;12.134;2022-08-23T01:05:13;115940.22;;;-142.68;59.99
17711;BME280;8975;57.718;12.134;2022-08-23T01:07:49;115940.22;;;-142.68;59.96
17711;BME280;8975;57.718;12.134;2022-08-23T01:10:22;115940.22;;;-142.68;59.91
17711;BME280;8975;57.718;12.134;2022-08-23T01:12:57;115940.22;;;-142.68;60.01
17711;BME280;8975;57.718;12.134;2022-08-23T01:15:36;115940.22;;;-142.68;60.26
17711;BME280;8975;57.718;12.134;2022-08-23T01:18:06;115940.22;;;-142.68;60.16
17711;BME280;8975;57.718;12.134;2022-08-23T01:21:07;115940.22;;;-142.68;59.91
17711;BME280;8975;57.718;12.134;2022-08-23T01:23:55;115940.22;;;-142.68;59.80
17711;BME280;8975;57.718;12.134;2022-08-23T01:26:23;115940.22;;;-142.68;60.13
17711;BME280;8975;57.718;12.134;2022-08-23T01:28:51;115940.22;;;-142.68;60.02
17711;BME280;8975;57.718;12.134;2022-08-23T01:31:18;115940.22;;;-142.68;60.04
17711;BME280;8975;57.718;12.134;2022-08-23T01:33:46;115940.22;;;-142.68;59.80
17711;BME280;8975;57.718;12.134;2022-08-23T01:36:15;115940.22;;;-142.68;59.73
17711;BME280;8975;57.718;12.134;2022-08-23T01:38:41;115940.22;;;-142.68;59.70
17711;BME280;8975;57.718;12.134;2022-08-23T01:41:06;115940.22;;;-142.68;59.92
17711;BME280;8975;57.718;12.134;2022-08-23T01:43:32;115940.22;;;-142.68;59.88
17711;BME280;8975;57.718;12.134;2022-08-23T01:46:07;115940.22;;;-142.68;59.52
17711;BME280;8975;57.718;12.134;2022-08-23T01:48:33;115940.22;;;-142.68;59.79
17711;BME280;8975;57.718;12.134;2022-08-23T01:50:59;115940.22;;;-142.68;59.77
17711;BME280;8975;57.718;12.134;2022-08-23T01:53:24;115940.22;;;-142.68;59.65
17711;BME280;8975;57.718;12.134;2022-08-23T01:55:50;115940.22;;;-142.68;59.75
17711;BME280;8975;57.718;12.134;2022-08-23T01:58:15;115940.22;;;-142.68;59.97
17711;BME280;8975;57.718;12.134;2022-08-23T02:00:42;115940.22;;;-142.68;59.99
17711;BME280;8975;57.718;12.134;2022-08-23T02:03:10;115940.22;;;-142.68;60.03
17711;BME280;8975;57.718;12.134;2022-08-23T02:05:39;115940.22;;;-142.68;59.83
17711;BME280;8975;57.718;12.134;2022-08-23T02:08:06;115940.22;;;-142.68;59.48
17711;BME280;8975;57.718;12.134;2022-08-23T02:10:51;115940.22;;;-142.68;60.00
17711;BME280;8975;57.718;12.134;2022-08-23T02:13:17;115940.22;;;-142.68;60.20
17711;BME280;8975;57.718;12.134;2022-08-23T02:15:43;115940.22;;;-142.68;59.93
17711;BME280;8975;57.718;12.134;2022-08-23T02:18:09;115940.22;;;-142.68;60.24
17711;BME280;8975;57.718;12.134;2022-08-23T02:20:35;115940.22;;;-142.68;60.21
17711;BME280;8975;57.718;12.134;2022-08-23T02:23:01;115940.22;;;-142.68;60.54
17711;BME280;8975;57.718;12.134;2022-08-23T02:25:27;115940.22;;;-142.68;60.30
17711;BME280;8975;57.718;12.134;2022-08-23T02:27:53;115940.22;;;-142.68;60.05
17711;BME280;8975;57.718;12.134;2022-08-23T02:30:18;115940.22;;;-142.68;60.20
17711;BME280;8975;57.718;12.134;2022-08-23T02:32:44;115940.22;;;-142.68;59.89
17711;BME280;8975;57.718;12.134;2022-08-23T02:35:09;115940.22;;;-142.68;59.85
17711;BME280;8975;57.718;12.134;2022-08-23T02:37:35;115940.22;;;-142.68;59.71
17711;BME280;8975;57.718;12.134;2022-08-23T02:40:00;115940.22;;;-142.68;60.00
17711;BME280;8975;57.718;12.134;2022-08-23T02:42:26;115940.22;;;-142.68;59.62
17711;BME280;8975;57.718;12.134;2022-08-23T02:44:51;115940.22;;;-142.68;59.59
17711;BME280;8975;57.718;12.134;2022-08-23T02:47:16;115940.22;;;-142.68;59.78
17711;BME280;8975;57.718;12.134;2022-08-23T02:49:42;115940.22;;;-142.68;60.06
17711;BME280;8975;57.718;12.134;2022-08-23T02:52:08;115940.22;;;-142.68;60.00
17711;BME280;8975;57.718;12.134;2022-08-23T02:54:34;115940.22;;;-142.68;60.11
17711;BME280;8975;57.718;12.134;2022-08-23T02:57:00;115940.22;;;-142.68;59.95
17711;BME280;8975;57.718;12.134;2022-08-23T02:59:26;115940.22;;;-142.68;60.37
17711;BME280;8975;57.718;12.134;2022-08-23T03:01:52;115940.22;;;-142.68;60.45
17711;BME280;8975;57.718;12.134;2022-08-23T03:04:17;115940.22;;;-142.68;60.32
17711;BME280;8975;57.718;12.134;2022-08-23T03:06:43;115940.22;;;-142.68;60.47
17711;BME280;8975;57.718;12.134;2022-08-23T03:09:08;115940.22;;;-142.68;60.54
17711;BME280;8975;57.718;12.134;2022-08-23T03:11:34;115940.22;;;-142.68;60.85
17711;BME280;8975;57.718;12.134;2022-08-23T03:14:00;115940.22;;;-142.68;60.91
17711;BME280;8975;57.718;12.134;2022-08-23T03:16:26;115940.22;;;-142.68;60.50
17711;BME280;8975;57.718;12.134;2022-08-23T03:18:52;115940.22;;;-142.68;60.00
17711;BME280;8975;57.718;12.134;2022-08-23T03:21:19;115940.22;;;-142.68;60.69
17711;BME280;8975;57.718;12.134;2022-08-23T03:23:46;115940.22;;;-142.68;60.71
17711;BME280;8975;57.718;12.134;2022-08-23T03:26:13;115940.22;;;-142.68;60.87
17711;BME280;8975;57.718;12.134;2022-08-23T03:28:41;115940.22;;;-142.68;60.90
17711;BME280;8975;57.718;12.134;2022-08-23T03:31:08;115940.22;;;-142.68;60.85
17711;BME280;8975;57.718;12.134;2022-08-23T03:33:34;115940.22;;;-142.68;59.90
17711;BME280;8975;57.718;12.134;2022-08-23T03:36:01;115940.22;;;-142.68;60.04
17711;BME280;8975;57.718;12.134;2022-08-23T03:38:27;115940.22;;;-142.68;60.17
17711;BME280;8975;57.718;12.134;2022-08-23T03:40:52;115940.22;;;-142.68;60.90
17711;BME280;8975;57.718;12.134;2022-08-23T03:43:19;115940.22;;;-142.68;61.18
17711;BME280;8975;57.718;12.134;2022-08-23T03:45:45;115940.22;;;-142.68;60.74
17711;BME280;8975;57.718;12.134;2022-08-23T03:48:10;115940.22;;;-142.68;60.83
17711;BME280;8975;57.718;12.134;2022-08-23T03:50:36;115940.22;;;-142.68;61.29
17711;BME280;8975;57.718;12.134;2022-08-23T03:53:02;115940.22;;;-142.68;61.25
17711;BME280;8975;57.718;12.134;2022-08-23T03:55:27;115940.22;;;-142.68;60.78
17711;BME280;8975;57.718;12.134;2022-08-23T03:57:53;115940.22;;;-142.68;61.02
17711;BME280;8975;57.718;12.134;2022-08-23T04:00:18;115940.22;;;-142.68;60.92
17711;BME280;8975;57.718;12.134;2022-08-23T04:02:44;115940.22;;;-142.68;60.72
17711;BME280;8975;57.718;12.134;2022-08-23T04:05:10;115940.22;;;-142.68;60.51
17711;BME280;8975;57.718;12.134;2022-08-23T04:07:37;115940.22;;;-142.68;60.53
17711;BME280;8975;57.718;12.134;2022-08-23T04:10:05;115940.22;;;-142.68;61.00
17711;BME280;8975;57.718;12.134;2022-08-23T04:12:31;115940.22;;;-142.68;61.58
17711;BME280;8975;57.718;12.134;2022-08-23T04:14:57;115940.22;;;-142.68;61.73
17711;BME280;8975;57.718;12.134;2022-08-23T04:17:22;115940.22;;;-142.68;61.89
17711;BME280;8975;57.718;12.134;2022-08-23T04:19:48;115940.22;;;-142.68;61.88
17711;BME280;8975;57.718;12.134;2022-08-23T04:22:16;115940.22;;;-142.68;61.75
17711;BME280;8975;57.718;12.134;2022-08-23T04:24:43;115940.22;;;-142.68;61.23
17711;BME280;8975;57.718;12.134;2022-08-23T04:27:08;115940.22;;;-142.68;61.25
17711;BME280;8975;57.718;12.134;2022-08-23T04:29:34;115940.22;;;-142.68;61.41
17711;BME280;8975;57.718;12.134;2022-08-23T04:32:01;115940.22;;;-142.68;61.74
17711;BME280;8975;57.718;12.134;2022-08-23T04:34:26;115940.22;;;-142.68;61.68
17711;BME280;8975;57.718;12.134;2022-08-23T04:36:52;115940.22;;;-142.68;61.73
17711;BME280;8975;57.718;12.134;2022-08-23T04:39:18;115940.22;;;-142.68;61.88
17711;BME280;8975;57.718;12.134;2022-08-23T04:41:43;115940.22;;;-142.68;61.53
17711;BME280;8975;57.718;12.134;2022-08-23T04:44:27;115940.22;;;-142.68;61.41
17711;BME280;8975;57.718;12.134;2022-08-23T04:46:52;115940.22;;;-142.68;61.37
17711;BME280;8975;57.718;12.134;2022-08-23T04:49:18;115940.22;;;-142.68;61.60
17711;BME280;8975;57.718;12.134;2022-08-23T04:51:44;115940.22;;;-142.68;62.24
17711;BME280;8975;57.718;12.134;2022-08-23T04:54:09;115940.22;;;-142.68;61.88
17711;BME280;8975;57.718;12.134;2022-08-23T04:56:35;115940.22;;;-142.68;61.69
17711;BME280;8975;57.718;12.134;2022-08-23T04:59:01;115940.22;;;-142.68;61.77
17711;BME280;8975;57.718;12.134;2022-08-23T05:01:27;115940.22;;;-142.68;61.44
17711;BME280;8975;57.718;12.134;2022-08-23T05:03:53;115940.22;;;-142.68;62.12
17711;BME280;8975;57.718;12.134;2022-08-23T05:06:19;115940.22;;;-142.68;62.27
17711;BME280;8975;57.718;12.134;2022-08-23T05:08:44;115940.22;;;-142.68;62.34
17711;BME280;8975;57.718;12.134;2022-08-23T05:11:10;115940.22;;;-142.68;62.25
17711;BME280;8975;57.718;12.134;2022-08-23T05:13:36;115940.22;;;-142.68;61.77
17711;BME280;8975;57.718;12.134;2022-08-23T05:16:03;115940.22;;;-142.68;62.10
17711;BME280;8975;57.718;12.134;2022-08-23T05:18:28;115940.22;;;-142.68;62.21
17711;BME280;8975;57.718;12.134;2022-08-23T05:20:54;115940.22;;;-142.68;62.36
17711;BME280;8975;57.718;12.134;2022-08-23T05:23:20;115940.22;;;-142.68;62.26
17711;BME280;8975;57.718;12.134;2022-08-23T05:25:45;115940.22;;;-142.68;62.34
17711;BME280;8975;57.718;12.134;2022-08-23T05:28:16;115940.22;;;-142.68;62.57
17711;BME280;8975;57.718;12.134;2022-08-23T05:30:42;115940.22;;;-142.68;62.81
17711;BME280;8975;57.718;12.134;2022-08-23T05:33:07;115940.22;;;-142.68;62.68
17711;BME280;8975;57.718;12.134;2022-08-23T05:35:33;115940.22;;;-142.68;62.59
17711;BME280;8975;57.718;12.134;2022-08-23T05:37:58;115940.22;;;-142.68;62.52
17711;BME280;8975;57.718;12.134;2022-08-23T05:40:28;115940.22;;;-142.68;62.85
17711;BME280;8975;57.718;12.134;2022-08-23T05:42:53;115940.22;;;-142.68;62.84
17711;BME280;8975;57.718;12.134;2022-08-23T05:45:19;115940.22;;;-142.68;63.26
17711;BME280;8975;57.718;12.134;2022-08-23T05:47:44;115940.22;;;-142.68;62.95
17711;BME280;8975;57.718;12.134;2022-08-23T05:50:10;115940.22;;;-142.68;63.38
17711;BME280;8975;57.718;12.134;2022-08-23T05:52:36;115940.22;;;-142.68;63.71
17711;BME280;8975;57.718;12.134;2022-08-23T05:55:01;115940.22;;;-142.68;63.76
17711;BME280;8975;57.718;12.134;2022-08-23T05:57:27;115940.22;;;-142.68;63.82
17711;BME280;8975;57.718;12.134;2022-08-23T05:59:52;115940.22;;;-142.68;63.78
17711;BME280;8975;57.718;12.134;2022-08-23T06:02:18;115940.22;;;-142.68;63.34
17711;BME280;8975;57.718;12.134;2022-08-23T06:04:43;115940.22;;;-142.68;63.60
17711;BME280;8975;57.718;12.134;2022-08-23T06:07:09;115940.22;;;-142.68;63.97
17711;BME280;8975;57.718;12.134;2022-08-23T06:09:36;115940.22;;;-142.68;63.60
17711;BME280;8975;57.718;12.134;2022-08-23T06:12:01;115940.22;;;-142.68;63.63
17711;BME280;8975;57.718;12.134;2022-08-23T06:14:27;115940.22;;;-142.68;63.41
17711;BME280;8975;57.718;12.134;2022-08-23T06:16:52;115940.22;;;-142.68;63.28
17711;BME280;8975;57.718;12.134;2022-08-23T06:19:18;115940.22;;;-142.68;63.33
17711;BME280;8975;57.718;12.134;2022-08-23T06:21:44;115940.22;;;-142.68;63.54
17711;BME280;8975;57.718;12.134;2022-08-23T06:24:09;115940.22;;;-142.68;63.92
17711;BME280;8975;57.718;12.134;2022-08-23T06:26:38;115940.22;;;-142.68;63.96
17711;BME280;8975;57.718;12.134;2022-08-23T06:29:07;115940.22;;;-142.68;63.88
17711;BME280;8975;57.718;12.134;2022-08-23T06:31:33;115940.22;;;-142.68;63.59
17711;BME280;8975;57.718;12.134;2022-08-23T06:36:52;115940.22;;;-142.68;63.10
17711;BME280;8975;57.718;12.134;2022-08-23T06:39:19;115940.22;;;-142.68;63.42
17711;BME280;8975;57.718;12.134;2022-08-23T06:41:45;115940.22;;;-142.68;63.41
17711;BME280;8975;57.718;12.134;2022-08-23T06:44:13;115940.22;;;-142.68;62.97
17711;BME280;8975;57.718;12.134;2022-08-23T06:46:39;115940.22;;;-142.68;63.56
17711;BME280;8975;57.718;12.134;2022-08-23T06:49:06;115940.22;;;-142.68;63.02
17711;BME280;8975;57.718;12.134;2022-08-23T06:51:44;115940.22;;;-142.68;62.60
17711;BME280;8975;57.718;12.134;2022-08-23T06:54:12;115940.22;;;-142.68;61.81
17711;BME280;8975;57.718;12.134;2022-08-23T06:56:39;115940.22;;;-142.68;60.55
17711;BME280;8975;57.718;12.134;2022-08-23T06:59:06;115940.22;;;-142.68;60.67
17711;BME280;8975;57.718;12.134;2022-08-23T07:01:36;115940.22;;;-142.68;60.72
17711;BME280;8975;57.718;12.134;2022-08-23T07:04:04;115940.22;;;-142.68;60.35
17711;BME280;8975;57.718;12.134;2022-08-23T07:06:30;115940.22;;;-142.68;61.50
17711;BME280;8975;57.718;12.134;2022-08-23T07:08:56;115940.22;;;-142.68;60.77
17711;BME280;8975;57.718;12.134;2022-08-23T07:11:23;115940.22;;;-142.68;60.80
17711;BME280;8975;57.718;12.134;2022-08-23T07:13:49;115940.22;;;-142.68;61.21
17711;BME280;8975;57.718;12.134;2022-08-23T07:16:17;115940.22;;;-142.68;60.30
17711;BME280;8975;57.718;12.134;2022-08-23T07:18:44;115940.22;;;-142.68;60.61
17711;BME280;8975;57.718;12.134;2022-08-23T07:21:11;115940.22;;;-142.68;60.67
17711;BME280;8975;57.718;12.134;2022-08-23T07:23:37;115940.22;;;-142.68;61.20
17711;BME280;8975;57.718;12.134;2022-08-23T07:26:07;115940.22;;;-142.68;60.83
17711;BME280;8975;57.718;12.134;2022-08-23T07:28:33;115940.22;;;-142.68;61.04
17711;BME280;8975;57.718;12.134;2022-08-23T07:33:36;115940.22;;;-142.68;61.53
17711;BME280;8975;57.718;12.134;2022-08-23T07:36:02;115940.22;;;-142.68;62.36
17711;BME280;8975;57.718;12.134;2022-08-23T07:38:28;115940.22;;;-142.68;61.95
17711;BME280;8975;57.718;12.134;2022-08-23T07:40:54;115940.22;;;-142.68;61.26
17711;BME280;8975;57.718;12.134;2022-08-23T07:43:19;115940.22;;;-142.68;61.17
17711;BME280;8975;57.718;12.134;2022-08-23T07:45:47;115940.22;;;-142.68;61.01
17711;BME280;8975;57.718;12.134;2022-08-23T07:48:13;115940.22;;;-142.68;61.54
17711;BME280;8975;57.718;12.134;2022-08-23T07:50:38;115940.22;;;-142.68;61.70
17711;BME280;8975;57.718;12.134;2022-08-23T07:53:08;115940.22;;;-142.68;61.37
17711;BME280;8975;57.718;12.134;2022-08-23T07:55:33;115940.22;;;-142.68;62.04
17711;BME280;8975;57.718;12.134;2022-08-23T07:57:59;115940.22;;;-142.68;61.83
17711;BME280;8975;57.718;12.134;2022-08-23T08:00:25;115940.22;;;-142.68;61.59
17711;BME280;8975;57.718;12.134;2022-08-23T08:02:51;115940.22;;;-142.68;61.61
17711;BME280;8975;57.718;12.134;2022-08-23T08:05:17;115940.22;;;-142.68;61.39
17711;BME280;8975;57.718;12.134;2022-08-23T08:07:44;115940.22;;;-142.68;61.22
17711;BME280;8975;57.718;12.134;2022-08-23T08:10:09;115940.22;;;-142.68;61.78
17711;BME280;8975;57.718;12.134;2022-08-23T08:12:36;115940.22;;;-142.68;61.98
17711;BME280;8975;57.718;12.134;2022-08-23T08:15:01;115940.22;;;-142.68;62.16
17711;BME280;8975;57.718;12.134;2022-08-23T08:17:27;115940.22;;;-142.68;61.99
17711;BME280;8975;57.718;12.134;2022-08-23T08:19:53;115940.22;;;-142.68;63.14
17711;BME280;8975;57.718;12.134;2022-08-23T08:22:18;115940.22;;;-142.68;62.45
17711;BME280;8975;57.718;12.134;2022-08-23T08:24:44;115940.22;;;-142.68;62.44
17711;BME280;8975;57.718;12.134;2022-08-23T08:27:09;115940.22;;;-142.68;61.51
17711;BME280;8975;57.718;12.134;2022-08-23T08:29:35;115940.22;;;-142.68;62.33
17711;BME280;8975;57.718;12.134;2022-08-23T08:32:02;115940.22;;;-142.68;61.88
17711;BME280;8975;57.718;12.134;2022-08-23T08:34:27;115940.22;;;-142.68;60.95
17711;BME280;8975;57.718;12.134;2022-08-23T08:36:55;115940.22;;;-142.68;61.29
17711;BME280;8975;57.718;12.134;2022-08-23T08:39:23;115940.22;;;-142.68;60.81
17711;BME280;8975;57.718;12.134;2022-08-23T08:52:30;115940.22;;;-142.68;60.65
17711;BME280;8975;57.718;12.134;2022-08-23T08:55:13;115940.22;;;-142.68;59.71
17711;BME280;8975;57.718;12.134;2022-08-23T08:57:44;115940.22;;;-142.68;60.37
17711;BME280;8975;57.718;12.134;2022-08-23T09:00:13;115940.22;;;-142.68;59.68
17711;BME280;8975;57.718;12.134;2022-08-23T09:02:40;115940.22;;;-142.68;60.32
17711;BME280;8975;57.718;12.134;2022-08-23T09:05:30;115940.22;;;-142.68;58.06
17711;BME280;8975;57.718;12.134;2022-08-23T09:18:13;115940.22;;;-142.68;59.35
17711;BME280;8975;57.718;12.134;2022-08-23T09:20:41;115940.22;;;-142.68;60.39
17711;BME280;8975;57.718;12.134;2022-08-23T09:23:15;115940.22;;;-142.68;59.32
17711;BME280;8975;57.718;12.134;2022-08-23T09:25:56;115940.22;;;-142.68;58.29
17711;BME280;8975;57.718;12.134;2022-08-23T09:28:24;115940.22;;;-142.68;59.77
17711;BME280;8975;57.718;12.134;2022-08-23T09:33:18;115940.22;;;-142.68;57.59
17711;BME280;8975;57.718;12.134;2022-08-23T09:36:03;115940.22;;;-142.68;57.77
17711;BME280;8975;57.718;12.134;2022-08-23T09:38:34;115940.22;;;-142.68;59.04
17711;BME280;8975;57.718;12.134;2022-08-23T09:41:00;115940.22;;;-142.68;58.61
17711;BME280;8975;57.718;12.134;2022-08-23T09:43:27;115940.22;;;-142.68;57.23
17711;BME280;8975;57.718;12.134;2022-08-23T09:45:54;115940.22;;;-142.68;56.24
17711;BME280;8975;57.718;12.134;2022-08-23T09:48:34;115940.22;;;-142.68;57.32
17711;BME280;8975;57.718;12.134;2022-08-23T09:54:00;115940.22;;;-142.68;58.52
17711;BME280;8975;57.718;12.134;2022-08-23T09:56:31;115940.22;;;-142.68;57.40
17711;BME280;8975;57.718;12.134;2022-08-23T09:58:58;115940.22;;;-142.68;57.87
17711;BME280;8975;57.718;12.134;2022-08-23T10:01:29;115940.22;;;-142.68;58.91
17711;BME280;8975;57.718;12.134;2022-08-23T10:04:12;115940.22;;;-142.68;59.01
17711;BME280;8975;57.718;12.134;2022-08-23T10:06:39;115940.22;;;-142.68;58.17
17711;BME280;8975;57.718;12.134;2022-08-23T10:09:07;115940.22;;;-142.68;57.50
17711;BME280;8975;57.718;12.134;2022-08-23T10:11:40;115940.22;;;-142.68;57.41
17711;BME280;8975;57.718;12.134;2022-08-23T10:14:12;115940.22;;;-142.68;58.76
17711;BME280;8975;57.718;12.134;2022-08-23T10:16:59;115940.22;;;-142.68;58.74
17711;BME280;8975;57.718;12.134;2022-08-23T10:22:22;115940.22;;;-142.68;59.35
17711;BME280;8975;57.718;12.134;2022-08-23T10:30:38;115940.22;;;-142.68;59.42
17711;BME280;8975;57.718;12.134;2022-08-23T10:33:12;115940.22;;;-142.68;59.97
17711;BME280;8975;57.718;12.134;2022-08-23T10:36:06;115940.22;;;-142.68;59.85
17711;BME280;8975;57.718;12.134;2022-08-23T10:39:02;115940.22;;;-142.68;60.79
17711;BME280;8975;57.718;12.134;2022-08-23T10:49:35;115940.22;;;-142.68;59.93
17711;BME280;8975;57.718;12.134;2022-08-23T10:52:04;115940.22;;;-142.68;60.45
17711;BME280;8975;57.718;12.134;2022-08-23T10:54:39;115940.22;;;-142.68;59.64
17711;BME280;8975;57.718;12.134;2022-08-23T10:57:32;115940.22;;;-142.68;58.21
17711;BME280;8975;57.718;12.134;2022-08-23T10:59:58;115940.22;;;-142.68;58.14
17711;BME280;8975;57.718;12.134;2022-08-23T11:02:38;115940.22;;;-142.68;57.66
17711;BME280;8975;57.718;12.134;2022-08-23T11:05:24;115940.22;;;-142.68;59.51
17711;BME280;8975;57.718;12.134;2022-08-23T11:08:09;115940.22;;;-142.68;58.66
17711;BME280;8975;57.718;12.134;2022-08-23T11:18:41;115940.22;;;-142.68;57.26
17711;BME280;8975;57.718;12.134;2022-08-23T11:21:40;115940.22;;;-142.68;56.40
17711;BME280;8975;57.718;12.134;2022-08-23T11:28:53;115940.22;;;-142.68;57.39
17711;BME280;8975;57.718;12.134;2022-08-23T11:31:31;115940.22;;;-142.68;58.22
17711;BME280;8975;57.718;12.134;2022-08-23T11:34:10;115940.22;;;-142.68;56.92
17711;BME280;8975;57.718;12.134;2022-08-23T11:36:40;115940.22;;;-142.68;56.98
17711;BME280;8975;57.718;12.134;2022-08-23T11:39:26;115940.22;;;-142.68;58.65
17711;BME280;8975;57.718;12.134;2022-08-23T11:41:58;115940.22;;;-142.68;57.42
17711;BME280;8975;57.718;12.134;2022-08-23T11:44:38;115940.22;;;-142.68;57.05
17711;BME280;8975;57.718;12.134;2022-08-23T11:47:06;115940.22;;;-142.68;57.69
17711;BME280;8975;57.718;12.134;2022-08-23T11:49:51;115940.22;;;-142.68;57.30
17711;BME280;8975;57.718;12.134;2022-08-23T11:52:37;115940.22;;;-142.68;57.48
17711;BME280;8975;57.718;12.134;2022-08-23T11:55:36;115940.22;;;-142.68;57.25
17711;BME280;8975;57.718;12.134;2022-08-23T11:58:29;115940.22;;;-142.68;56.87
17711;BME280;8975;57.718;12.134;2022-08-23T12:08:58;115940.22;;;-142.68;55.94
17711;BME280;8975;57.718;12.134;2022-08-23T12:14:47;115940.22;;;-142.68;54.84
17711;BME280;8975;57.718;12.134;2022-08-23T12:19:42;115940.22;;;-142.68;55.55
17711;BME280;8975;57.718;12.134;2022-08-23T12:22:14;115940.22;;;-142.68;55.84
17711;BME280;8975;57.718;12.134;2022-08-23T12:24:50;115940.22;;;-142.68;53.97
17711;BME280;8975;57.718;12.134;2022-08-23T12:29:51;115940.22;;;-142.68;54.12
17711;BME280;8975;57.718;12.134;2022-08-23T12:40:39;115940.22;;;-142.68;53.25
17711;BME280;8975;57.718;12.134;2022-08-23T12:43:09;115940.22;;;-142.68;53.68
17711;BME280;8975;57.718;12.134;2022-08-23T12:45:41;115940.22;;;-142.68;52.27
17711;BME280;8975;57.718;12.134;2022-08-23T12:48:09;115940.22;;;-142.68;53.28
17711;BME280;8975;57.718;12.134;2022-08-23T12:50:38;115940.22;;;-142.68;52.63
17711;BME280;8975;57.718;12.134;2022-08-23T12:55:47;115940.22;;;-142.68;52.68
17711;BME280;8975;57.718;12.134;2022-08-23T12:58:16;115940.22;;;-142.68;52.85
17711;BME280;8975;57.718;12.134;2022-08-23T13:00:55;115940.22;;;-142.68;50.94
17711;BME280;8975;57.718;12.134;2022-08-23T13:05:51;115940.22;;;-142.68;52.49
17711;BME280;8975;57.718;12.134;2022-08-23T13:08:25;115940.22;;;-142.68;52.01
17711;BME280;8975;57.718;12.134;2022-08-23T13:10:51;115940.22;;;-142.68;52.46
17711;BME280;8975;57.718;12.134;2022-08-23T13:13:21;115940.22;;;-142.68;51.21
17711;BME280;8975;57.718;12.134;2022-08-23T13:15:55;115940.22;;;-142.68;51.78
17711;BME280;8975;57.718;12.134;2022-08-23T13:18:30;115940.22;;;-142.68;51.41
17711;BME280;8975;57.718;12.134;2022-08-23T13:21:24;115940.22;;;-142.68;51.29
17711;BME280;8975;57.718;12.134;2022-08-23T13:24:01;115940.22;;;-142.68;50.97
17711;BME280;8975;57.718;12.134;2022-08-23T13:29:19;115940.22;;;-142.68;51.64
17711;BME280;8975;57.718;12.134;2022-08-23T13:32:00;115940.22;;;-142.68;52.90
17711;BME280;8975;57.718;12.134;2022-08-23T13:37:23;115940.22;;;-142.68;53.21
17711;BME280;8975;57.718;12.134;2022-08-23T13:39:54;115940.22;;;-142.68;52.14
17711;BME280;8975;57.718;12.134;2022-08-23T13:42:41;115940.22;;;-142.68;50.34
17711;BME280;8975;57.718;12.134;2022-08-23T13:45:15;115940.22;;;-142.68;50.35
17711;BME280;8975;57.718;12.134;2022-08-23T13:47:54;115940.22;;;-142.68;50.74
17711;BME280;8975;57.718;12.134;2022-08-23T13:50:26;115940.22;;;-142.68;51.57
17711;BME280;8975;57.718;12.134;2022-08-23T13:52:52;115940.22;;;-142.68;51.42
17711;BME280;8975;57.718;12.134;2022-08-23T13:55:18;115940.22;;;-142.68;50.99
17711;BME280;8975;57.718;12.134;2022-08-23T13:57:44;115940.22;;;-142.68;52.18
17711;BME280;8975;57.718;12.134;2022-08-23T14:00:10;115940.22;;;-142.68;50.06
17711;BME280;8975;57.718;12.134;2022-08-23T14:02:36;115940.22;;;-142.68;50.43
17711;BME280;8975;57.718;12.134;2022-08-23T14:05:07;115940.22;;;-142.68;51.31
17711;BME280;8975;57.718;12.134;2022-08-23T14:07:33;115940.22;;;-142.68;50.81
17711;BME280;8975;57.718;12.134;2022-08-23T14:09:58;115940.22;;;-142.68;50.34
17711;BME280;8975;57.718;12.134;2022-08-23T14:12:29;115940.22;;;-142.68;50.68
17711;BME280;8975;57.718;12.134;2022-08-23T14:14:56;115940.22;;;-142.68;50.49
17711;BME280;8975;57.718;12.134;2022-08-23T14:17:22;115940.22;;;-142.68;49.95
17711;BME280;8975;57.718;12.134;2022-08-23T14:19:48;115940.22;;;-142.68;50.53
17711;BME280;8975;57.718;12.134;2022-08-23T14:22:14;115940.22;;;-142.68;49.27
17711;BME280;8975;57.718;12.134;2022-08-23T14:24:41;115940.22;;;-142.68;49.76
17711;BME280;8975;57.718;12.134;2022-08-23T14:27:08;115940.22;;;-142.68;50.09